TimeCDT,TemperatureF,Dew PointF,Humidity,Sea Level PressureIn,VisibilityMPH,Wind Direction,Wind SpeedMPH,Gust SpeedMPH,PrecipitationIn,Events,Conditions,WindDirDegrees,DateUTC
12:41 AM,78.8,64.4,61,30.10,7.0,East,5.8,-,N/A,,Mostly Cloudy,80,2013-04-27 05:41:00
1:46 AM,77.0,64.4,65,30.08,7.0,East,4.6,-,N/A,,Scattered Clouds,90,2013-04-27 06:46:00
2:42 AM,75.2,66.2,73,30.06,7.0,ENE,5.8,-,N/A,,Scattered Clouds,70,2013-04-27 07:42:00
3:40 AM,75.2,66.2,73,30.04,7.0,East,4.6,-,N/A,,Scattered Clouds,80,2013-04-27 08:40:00
4:45 AM,75.2,66.2,73,30.03,7.0,East,5.8,-,N/A,,Scattered Clouds,90,2013-04-27 09:45:00
5:40 AM,77.0,66.2,69,30.04,7.0,East,4.6,-,N/A,,Scattered Clouds,90,2013-04-27 10:40:00
6:40 AM,75.2,66.2,73,30.04,7.0,East,3.5,-,N/A,,Scattered Clouds,80,2013-04-27 11:40:00
7:40 AM,80.6,68.0,65,30.07,7.0,East,8.1,-,N/A,,Scattered Clouds,80,2013-04-27 12:40:00
8:43 AM,80.6,68.0,65,30.07,7.0,ESE,9.2,-,N/A,,Scattered Clouds,110,2013-04-27 13:43:00
9:41 AM,82.4,68.0,62,30.08,7.0,East,11.5,-,N/A,,Mostly Cloudy,100,2013-04-27 14:41:00
10:40 AM,84.2,68.0,58,30.08,7.0,East,11.5,-,N/A,,Mostly Cloudy,90,2013-04-27 15:40:00
11:48 AM,77.0,68.0,74,30.09,7.0,East,11.5,-,N/A,,Scattered Clouds,90,2013-04-27 16:48:00
12:41 PM,82.4,68.0,62,30.07,7.0,East,13.8,-,N/A,,Mostly Cloudy,100,2013-04-27 17:41:00
1:41 PM,84.2,68.0,58,30.04,7.0,East,11.5,-,N/A,,Mostly Cloudy,100,2013-04-27 18:41:00
2:46 PM,82.4,69.8,66,30.01,7.0,ESE,10.4,-,N/A,,Mostly Cloudy,110,2013-04-27 19:46:00
3:45 PM,84.2,69.8,62,30.01,7.0,East,8.1,-,N/A,,Mostly Cloudy,90,2013-04-27 20:45:00
4:45 PM,82.4,69.8,66,29.98,7.0,ENE,11.5,-,N/A,,Mostly Cloudy,60,2013-04-27 21:45:00
5:41 PM,80.6,68.0,65,29.98,7.0,ENE,9.2,-,N/A,,Mostly Cloudy,70,2013-04-27 22:41:00
6:43 PM,80.6,68.0,65,29.98,7.0,East,10.4,-,N/A,,Mostly Cloudy,80,2013-04-27 23:43:00
7:40 PM,78.8,68.0,69,29.99,7.0,East,11.5,-,N/A,,Scattered Clouds,80,2013-04-28 00:40:00
8:48 PM,78.8,68.0,69,29.99,7.0,East,8.1,-,N/A,,Scattered Clouds,100,2013-04-28 01:48:00
9:48 PM,78.8,68.0,69,29.97,7.0,East,8.1,-,N/A,,Scattered Clouds,80,2013-04-28 02:48:00
10:47 PM,78.8,68.0,69,30.01,7.0,East,5.8,-,N/A,,Scattered Clouds,100,2013-04-28 03:47:00
11:46 PM,78.8,69.8,74,29.99,7.0,East,5.8,-,N/A,,Scattered Clouds,80,2013-04-28 04:46:00